General Aviation Weather

Text Reports

Enter one or more of the following location identifiers separated by a space:

Zip Code, Four-Character ICAO or Three-Character IATA airport codes.

METAR - Aviation Routine Weather Report
KEST - Estherville, Iowa
Updated at 6:52 AM GMT on July 04, 2015 (1:52 AM CDT):
METAR KEST 040652Z AUTO 24006KT 9SM CLR 16/13 A2997 RMK AO2 SLP143 T01560133
TAF - Terminal Area Forecast
KEST - Estherville, Iowa
Updated at 6:52 AM GMT on July 04, 2015 (1:52 AM CDT):
No TAF is currently available for this location.
Decoded:
No decoded TAF is available.
PIREP - Pilot Weather Report
KEST - Estherville, Iowa
Updated at 6:52 AM GMT on July 04, 2015 (1:52 AM CDT):
No PIREP is currently available for this location.
AIRMET - Airmens Meteorological Information
KEST - Estherville, Iowa
Updated at 6:52 AM GMT on July 04, 2015 (1:52 AM CDT):
No AIRMET is currently available for this location.
SIGMET - Significant Meteorological Information
KEST - Estherville, Iowa
Updated at 6:52 AM GMT on July 04, 2015 (1:52 AM CDT):
No SIGMET is currently available for this location.
NOTAM - Notice to Airmen
KEST - Estherville, Iowa
Updated at 6:52 AM GMT on July 04, 2015 (1:52 AM CDT):
No NOTAM is currently available for this location.
Forecast Area
KEST - Estherville, Iowa
Updated at 6:52 AM GMT on July 04, 2015 (1:52 AM CDT):
No NOTAM is currently available for this location.
Aviation Weather Maps